Time;durP1;ratioP1;P1;durP2;ratioP2;P2;SDS_P1;SDS_P2;PMS_P1;PMS_P2;Temp;Humidity;BMP_temperature;BMP_pressure;BME280_temperature;BME280_humidity;BME280_pressure;Samples;Min_cycle;Max_cycle;Signal;HPM_P1;HPM_P2
2023/01/24 00:01:11;;;;;;;;;;;3.00;99.90;;;;;;5022796;28;20004;-76
2023/01/24 00:03:37;;;;;;;;;;;3.10;99.90;;;;;;5025077;28;19913;-77
2023/01/24 00:06:03;;;;;;;;;;;4.50;99.90;;;;;;5008283;28;19916;-77
2023/01/24 00:08:29;;;;;;;;;;;3.00;99.90;;;;;;5007143;28;20565;-76
2023/01/24 00:11:00;;;;;;;;;;;3.00;99.90;;;;;;5007735;28;20540;-78
2023/01/24 00:13:32;;;;;;;;;;;3.00;99.90;;;;;;5024090;28;19940;-78
2023/01/24 00:16:17;;;;;;;;;;;6.10;99.90;;;;;;5006819;28;19910;-78
2023/01/24 00:18:43;;;;;;;;;;;3.00;99.90;;;;;;5011046;28;19909;-77
2023/01/24 00:21:19;;;;;;;;;;;3.10;99.90;;;;;;5010229;28;19925;-77
2023/01/24 00:23:45;;;;;;;;;;;3.10;99.90;;;;;;5007360;28;20473;-77
2023/01/24 00:26:12;;;;;;;;;;;3.10;99.90;;;;;;5009104;28;20565;-77
2023/01/24 00:28:37;;;;;;;;;;;3.10;99.90;;;;;;5008218;28;20438;-77
2023/01/24 00:31:03;;;;;;;;;;;3.00;99.90;;;;;;5009409;28;19984;-77
2023/01/24 00:33:29;;;;;;;;;;;3.00;99.90;;;;;;5007396;28;19909;-77
2023/01/24 00:35:54;;;;;;;;;;;3.10;99.90;;;;;;5027290;28;19937;-76
2023/01/24 00:38:20;;;;;;;;;;;3.10;99.90;;;;;;5029261;28;20075;-77
2023/01/24 00:40:46;;;;;;;;;;;3.10;99.90;;;;;;5011116;28;20114;-77
2023/01/24 00:43:12;;;;;;;;;;;3.10;99.90;;;;;;5010534;28;19913;-77
2023/01/24 00:45:38;;;;;;;;;;;3.10;99.90;;;;;;5031057;28;19940;-78
2023/01/24 00:48:04;;;;;;;;;;;5.00;99.90;;;;;;5033658;28;19910;-77
2023/01/24 00:50:31;;;;;;;;;;;3.00;99.90;;;;;;5017056;28;20121;-77
2023/01/24 00:52:56;;;;;;;;;;;3.10;99.90;;;;;;5015061;28;20492;-77
2023/01/24 00:55:22;;;;;;;;;;;3.10;99.90;;;;;;5029470;28;19948;-77
2023/01/24 00:57:48;;;;;;;;;;;3.10;99.90;;;;;;5009226;28;20345;-76
2023/01/24 01:00:13;;;;;;;;;;;3.30;99.90;;;;;;5025731;28;20126;-76
2023/01/24 01:02:42;;;;;;;;;;;3.10;99.90;;;;;;5024607;28;19980;-76
2023/01/24 01:05:08;;;;;;;;;;;2.50;99.90;;;;;;5024913;28;19916;-76
2023/01/24 01:07:34;;;;;;;;;;;3.00;99.90;;;;;;5024295;28;19909;-78
2023/01/24 01:09:59;;;;;;;;;;;3.00;99.90;;;;;;5005823;28;19969;-77
2023/01/24 01:12:25;;;;;;;;;;;3.00;99.90;;;;;;5023934;28;20010;-77
2023/01/24 01:14:52;;;;;;;;;;;2.90;99.90;;;;;;5024629;28;19909;-77
2023/01/24 01:17:20;;;;;;;;;;;2.60;99.90;;;;;;5027239;28;19913;-76
2023/01/24 01:19:49;;;;;;;;;;;5.90;99.90;;;;;;5007658;28;19932;-77
2023/01/24 01:22:16;;;;;;;;;;;2.90;99.90;;;;;;5008440;28;19933;-77
2023/01/24 01:24:41;;;;;;;;;;;2.90;99.90;;;;;;5010723;28;19956;-77
2023/01/24 01:27:07;;;;;;;;;;;2.90;99.90;;;;;;5009158;28;20146;-78
2023/01/24 01:29:33;;;;;;;;;;;2.90;99.90;;;;;;5026532;28;20106;-77
2023/01/24 01:32:04;;;;;;;;;;;2.90;99.90;;;;;;5025844;28;19916;-77
2023/01/24 01:34:29;;;;;;;;;;;2.50;99.90;;;;;;5028088;28;19909;-76
2023/01/24 01:36:58;;;;;;;;;;;3.30;99.90;;;;;;5008529;28;20408;-77
2023/01/24 01:39:23;;;;;;;;;;;2.50;99.90;;;;;;5007829;28;20464;-76
2023/01/24 01:41:49;;;;;;;;;;;2.90;99.90;;;;;;5008634;28;20004;-77
2023/01/24 01:44:43;;;;;;;;;;;3.20;99.90;;;;;;5009049;28;19949;-77
2023/01/24 01:47:20;;;;;;;;;;;2.80;99.90;;;;;;5009361;28;19913;-77
2023/01/24 01:49:56;;;;;;;;;;;2.80;99.90;;;;;;5026178;28;19979;-77
2023/01/24 01:52:23;;;;;;;;;;;2.90;99.90;;;;;;5008015;28;19925;-77
2023/01/24 01:54:50;;;;;;;;;;;2.80;99.90;;;;;;5026012;28;19909;-77
2023/01/24 01:57:18;;;;;;;;;;;2.70;99.90;;;;;;5027884;28;19909;-77
2023/01/24 01:59:48;;;;;;;;;;;2.60;99.90;;;;;;5025319;28;20436;-77
2023/01/24 02:02:14;;;;;;;;;;;2.60;99.90;;;;;;5007438;28;19921;-77
2023/01/24 02:04:41;;;;;;;;;;;2.60;99.90;;;;;;5025453;28;19996;-77
2023/01/24 02:07:09;;;;;;;;;;;2.60;99.90;;;;;;5007902;28;19909;-76
2023/01/24 02:09:37;;;;;;;;;;;2.60;99.90;;;;;;4990578;28;19948;-77
2023/01/24 02:12:05;;;;;;;;;;;2.50;99.90;;;;;;5005446;28;20106;-77
2023/01/24 02:17:17;;;;;;;;;;;2.50;99.90;;;;;;5006195;28;20111;-78
2023/01/24 02:19:48;;;;;;;;;;;2.50;99.90;;;;;;5010348;28;19909;-77
2023/01/24 02:22:22;;;;;;;;;;;2.50;99.90;;;;;;5010910;28;19925;-77
2023/01/24 02:24:59;;;;;;;;;;;2.50;99.90;;;;;;5012379;28;19944;-77
2023/01/24 02:27:24;;;;;;;;;;;2.60;99.90;;;;;;5006775;28;19937;-77
2023/01/24 02:29:50;;;;;;;;;;;2.60;99.90;;;;;;5005992;28;19917;-77
2023/01/24 02:32:17;;;;;;;;;;;2.60;99.90;;;;;;4988643;28;19967;-77
2023/01/24 02:34:42;;;;;;;;;;;2.70;99.90;;;;;;4990971;28;19977;-77
2023/01/24 02:37:11;;;;;;;;;;;2.70;99.90;;;;;;4990283;28;20195;-77
2023/01/24 02:39:37;;;;;;;;;;;2.70;99.90;;;;;;5006274;28;19914;-77
2023/01/24 02:42:05;;;;;;;;;;;2.00;99.90;;;;;;4989338;28;20372;-77
2023/01/24 02:44:51;;;;;;;;;;;2.70;99.90;;;;;;5007290;28;20532;-77
2023/01/24 02:47:20;;;;;;;;;;;2.70;99.90;;;;;;5007096;28;19984;-76
2023/01/24 02:49:45;;;;;;;;;;;2.70;99.90;;;;;;4990896;28;19921;-77
2023/01/24 02:54:55;;;;;;;;;;;2.70;99.90;;;;;;5005151;28;20447;-76
2023/01/24 03:00:06;;;;;;;;;;;2.70;99.90;;;;;;5007188;28;19921;-76
2023/01/24 03:02:32;;;;;;;;;;;2.60;99.90;;;;;;4988772;28;20324;-77
2023/01/24 03:04:57;;;;;;;;;;;2.60;99.90;;;;;;5006094;28;19921;-76
2023/01/24 03:07:23;;;;;;;;;;;2.50;99.90;;;;;;5005930;28;20183;-77
2023/01/24 03:09:48;;;;;;;;;;;2.50;99.90;;;;;;5008462;28;19932;-77
2023/01/24 03:36:54;;;;;;;;;;;2.20;99.90;;;;;;5023117;28;20133;-77
2023/01/24 03:42:04;;;;;;;;;;;2.30;99.90;;;;;;5026206;28;19920;-77
2023/01/24 03:44:30;;;;;;;;;;;2.30;99.90;;;;;;5006794;28;20529;-76
2023/01/24 03:46:55;;;;;;;;;;;2.30;99.90;;;;;;5022831;28;19959;-76
2023/01/24 03:54:49;;;;;;;;;;;2.40;99.90;;;;;;5024610;28;19963;-77
2023/01/24 03:57:15;;;;;;;;;;;2.50;99.90;;;;;;5023958;28;20570;-77
2023/01/24 03:59:40;;;;;;;;;;;2.50;99.90;;;;;;5023859;28;19909;-78
2023/01/24 04:02:06;;;;;;;;;;;2.50;99.90;;;;;;5023763;28;19913;-77
2023/01/24 04:05:12;;;;;;;;;;;2.50;99.90;;;;;;5024885;28;19924;-77
2023/01/24 04:07:17;;;;;;;;;;;2.40;99.90;;;;;;5026519;28;19913;-78
2023/01/24 04:09:43;;;;;;;;;;;2.40;99.90;;;;;;5034738;23;19924;-77
2023/01/24 04:12:09;;;;;;;;;;;2.40;99.90;;;;;;5043676;28;20418;-77
2023/01/24 04:14:34;;;;;;;;;;;2.50;99.90;;;;;;5026632;28;19948;-77
2023/01/24 04:17:00;;;;;;;;;;;2.50;99.90;;;;;;5027474;28;19909;-77
2023/01/24 04:19:28;;;;;;;;;;;2.40;99.90;;;;;;5027064;28;19935;-77
2023/01/24 04:21:57;;;;;;;;;;;2.90;99.90;;;;;;5041904;28;20367;-77
2023/01/24 04:24:22;;;;;;;;;;;2.50;99.90;;;;;;5045800;28;19948;-77
2023/01/24 04:26:48;;;;;;;;;;;2.40;99.90;;;;;;5044039;28;19960;-77
2023/01/24 04:29:14;;;;;;;;;;;2.40;99.90;;;;;;5043483;28;19909;-77
2023/01/24 04:31:39;;;;;;;;;;;2.30;99.90;;;;;;5026108;28;20360;-77
2023/01/24 04:34:05;;;;;;;;;;;2.30;99.90;;;;;;5024924;28;19908;-76
2023/01/24 04:36:30;;;;;;;;;;;2.30;99.90;;;;;;5026399;28;19960;-77
2023/01/24 04:38:56;;;;;;;;;;;2.30;99.90;;;;;;5042834;28;19944;-77
2023/01/24 04:41:22;;;;;;;;;;;2.20;99.90;;;;;;5044861;28;19917;-77
2023/01/24 04:43:47;;;;;;;;;;;2.20;99.90;;;;;;5028269;28;19956;-76
2023/01/24 04:46:13;;;;;;;;;;;2.20;99.90;;;;;;5026571;28;19908;-76
2023/01/24 04:48:38;;;;;;;;;;;2.20;99.90;;;;;;5043902;28;20300;-77
2023/01/24 04:51:04;;;;;;;;;;;2.30;99.90;;;;;;5027907;28;19920;-77
2023/01/24 04:53:30;;;;;;;;;;;2.30;99.90;;;;;;5041240;28;19920;-77
2023/01/24 04:56:01;;;;;;;;;;;2.30;99.90;;;;;;5046675;28;20257;-77
2023/01/24 04:58:27;;;;;;;;;;;2.30;99.90;;;;;;5046823;28;19908;-77
2023/01/24 05:00:53;;;;;;;;;;;2.30;99.90;;;;;;5046478;28;19917;-77
2023/01/24 05:03:18;;;;;;;;;;;2.30;99.90;;;;;;5045599;28;20007;-77
2023/01/24 05:05:48;;;;;;;;;;;2.30;99.90;;;;;;5045654;28;20164;-77
2023/01/24 05:08:13;;;;;;;;;;;2.40;99.90;;;;;;5045503;28;20036;-77
2023/01/24 05:10:39;;;;;;;;;;;1.50;99.90;;;;;;5044950;28;20673;-77
2023/01/24 05:13:05;;;;;;;;;;;2.40;99.90;;;;;;5044983;28;19909;-77
2023/01/24 05:15:31;;;;;;;;;;;2.40;99.90;;;;;;5043522;28;19916;-77
2023/01/24 05:17:56;;;;;;;;;;;2.40;99.90;;;;;;5044618;28;20007;-77
2023/01/24 05:20:22;;;;;;;;;;;2.40;99.90;;;;;;5043770;28;19928;-78
2023/01/24 05:22:48;;;;;;;;;;;2.40;99.90;;;;;;5043357;28;20105;-77
2023/01/24 05:25:17;;;;;;;;;;;2.40;99.90;;;;;;5043236;28;19909;-77
2023/01/24 05:27:43;;;;;;;;;;;0.80;99.90;;;;;;5045523;28;19916;-78
2023/01/24 05:30:09;;;;;;;;;;;2.40;99.90;;;;;;5045750;28;19999;-77
2023/01/24 05:32:34;;;;;;;;;;;2.40;99.90;;;;;;5045060;28;20525;-77
2023/01/24 05:35:00;;;;;;;;;;;2.30;99.90;;;;;;5025887;28;20202;-78
2023/01/24 05:37:25;;;;;;;;;;;2.30;99.90;;;;;;5026249;28;20086;-78
2023/01/24 05:39:51;;;;;;;;;;;0.90;99.90;;;;;;5026418;28;19913;-78
2023/01/24 05:42:17;;;;;;;;;;;2.30;99.90;;;;;;5025861;28;19908;-78
2023/01/24 05:44:42;;;;;;;;;;;2.20;99.90;;;;;;5044061;28;19909;-77
2023/01/24 05:47:08;;;;;;;;;;;2.20;99.90;;;;;;5045040;28;19913;-78
2023/01/24 05:49:33;;;;;;;;;;;2.30;99.90;;;;;;5026402;28;20384;-77
2023/01/24 05:51:59;;;;;;;;;;;2.20;99.90;;;;;;5043555;28;19998;-78
2023/01/24 05:54:24;;;;;;;;;;;2.20;99.90;;;;;;5026813;28;19913;-78
2023/01/24 05:56:50;;;;;;;;;;;2.30;99.90;;;;;;5027988;28;19909;-77
2023/01/24 05:59:19;;;;;;;;;;;2.30;99.90;;;;;;5028474;28;20615;-78
2023/01/24 06:01:44;;;;;;;;;;;1.50;99.90;;;;;;5045075;28;19921;-77
2023/01/24 06:04:10;;;;;;;;;;;2.20;99.90;;;;;;5024787;28;20414;-77
2023/01/24 06:06:35;;;;;;;;;;;2.20;99.90;;;;;;5043862;28;19909;-77
2023/01/24 06:09:01;;;;;;;;;;;2.20;99.90;;;;;;5043645;28;19979;-77
2023/01/24 06:11:27;;;;;;;;;;;2.20;99.90;;;;;;5044014;28;19932;-78
2023/01/24 06:13:53;;;;;;;;;;;2.10;99.90;;;;;;5042710;28;19909;-78
2023/01/24 06:16:21;;;;;;;;;;;4.10;99.90;;;;;;5041863;28;19943;-77
2023/01/24 06:18:47;;;;;;;;;;;2.10;99.90;;;;;;5042207;28;19909;-77
2023/01/24 06:21:12;;;;;;;;;;;2.10;99.90;;;;;;5042271;28;20383;-78
2023/01/24 06:23:38;;;;;;;;;;;2.10;99.90;;;;;;5042639;28;19977;-77
2023/01/24 06:26:04;;;;;;;;;;;2.10;99.90;;;;;;5042526;28;20402;-78
2023/01/24 06:28:33;;;;;;;;;;;2.00;99.90;;;;;;5041797;28;20011;-77
2023/01/24 06:31:21;;;;;;;;;;;0.40;99.90;;;;;;5041120;28;19912;-78
2023/01/24 06:33:50;;;;;;;;;;;2.10;99.90;;;;;;5041923;28;20011;-78
2023/01/24 06:36:25;;;;;;;;;;;5.20;99.90;;;;;;5045688;28;19908;-78
2023/01/24 06:38:50;;;;;;;;;;;2.20;99.90;;;;;;5043739;28;19967;-78
2023/01/24 06:41:16;;;;;;;;;;;2.20;99.90;;;;;;5041327;28;19948;-77
2023/01/24 06:43:45;;;;;;;;;;;2.20;99.90;;;;;;5042198;28;19931;-78
2023/01/24 06:46:11;;;;;;;;;;;2.20;99.90;;;;;;5045079;28;20210;-77
2023/01/24 06:48:37;;;;;;;;;;;2.20;99.90;;;;;;5043960;28;20257;-78
2023/01/24 06:51:03;;;;;;;;;;;2.30;99.90;;;;;;5042827;28;20105;-78
2023/01/24 06:53:29;;;;;;;;;;;2.30;99.90;;;;;;5044505;28;20357;-78
2023/01/24 06:55:54;;;;;;;;;;;2.30;99.90;;;;;;5044431;28;19909;-78
2023/01/24 06:58:20;;;;;;;;;;;2.30;99.90;;;;;;5044323;28;20315;-78
2023/01/24 07:00:45;;;;;;;;;;;2.30;99.90;;;;;;5045058;28;20400;-78
2023/01/24 07:03:11;;;;;;;;;;;2.40;99.90;;;;;;5044475;28;19931;-78
2023/01/24 07:05:38;;;;;;;;;;;2.40;99.90;;;;;;5045543;28;19909;-78
2023/01/24 07:08:03;;;;;;;;;;;2.40;99.90;;;;;;5051302;22;20221;-78
2023/01/24 07:10:29;;;;;;;;;;;2.40;99.90;;;;;;5043598;28;19913;-77
2023/01/24 07:12:55;;;;;;;;;;;2.40;99.90;;;;;;5042642;28;19970;-78
2023/01/24 07:15:20;;;;;;;;;;;2.40;99.90;;;;;;5025208;28;19913;-77
2023/01/24 07:17:49;;;;;;;;;;;2.50;99.90;;;;;;5049944;23;20280;-79
2023/01/24 07:20:15;;;;;;;;;;;2.50;99.90;;;;;;5025451;28;19917;-78
2023/01/24 07:22:41;;;;;;;;;;;2.50;99.90;;;;;;5025392;28;20375;-78
2023/01/24 07:25:14;;;;;;;;;;;2.50;99.90;;;;;;5026123;28;19909;-78
2023/01/24 07:27:41;;;;;;;;;;;2.50;99.90;;;;;;5026122;28;19996;-78
2023/01/24 07:30:07;;;;;;;;;;;2.60;99.90;;;;;;5026842;28;19908;-78
2023/01/24 07:32:32;;;;;;;;;;;2.60;99.90;;;;;;5026256;28;20091;-78
2023/01/24 07:34:58;;;;;;;;;;;2.60;99.90;;;;;;5045970;28;19909;-78
2023/01/24 07:37:24;;;;;;;;;;;2.60;99.90;;;;;;5044314;28;20159;-78
2023/01/24 07:39:52;;;;;;;;;;;2.60;99.90;;;;;;5023291;28;19909;-77
2023/01/24 07:42:18;;;;;;;;;;;2.30;99.90;;;;;;5044144;28;19950;-78
2023/01/24 07:44:43;;;;;;;;;;;2.60;99.90;;;;;;5043117;28;20012;-77
2023/01/24 07:47:09;;;;;;;;;;;2.50;99.90;;;;;;5042312;28;20152;-77
2023/01/24 07:49:35;;;;;;;;;;;2.50;99.90;;;;;;5023405;28;19931;-78
2023/01/24 07:52:00;;;;;;;;;;;2.50;99.90;;;;;;5040674;28;19924;-77
2023/01/24 07:54:29;;;;;;;;;;;2.50;99.90;;;;;;5022663;28;20394;-78
2023/01/24 07:56:57;;;;;;;;;;;2.50;99.90;;;;;;5040866;28;19909;-79
2023/01/24 07:59:26;;;;;;;;;;;2.50;99.90;;;;;;5042392;28;20003;-78
2023/01/24 08:01:51;;;;;;;;;;;2.40;99.90;;;;;;5042000;28;19920;-77
2023/01/24 08:04:17;;;;;;;;;;;2.40;99.90;;;;;;5041825;28;19909;-77
2023/01/24 08:07:16;;;;;;;;;;;2.40;99.90;;;;;;5039790;28;20292;-77
2023/01/24 08:09:31;;;;;;;;;;;2.40;99.90;;;;;;5042353;28;19916;-78
2023/01/24 08:11:56;;;;;;;;;;;2.40;99.90;;;;;;5023682;28;20564;-77
2023/01/24 08:14:22;;;;;;;;;;;2.40;99.90;;;;;;5041036;28;20106;-78
2023/01/24 08:16:48;;;;;;;;;;;2.40;99.90;;;;;;5040280;28;20350;-77
2023/01/24 08:19:14;;;;;;;;;;;2.40;99.90;;;;;;5035307;28;19917;-77
2023/01/24 08:21:39;;;;;;;;;;;2.50;99.90;;;;;;5022684;28;19917;-77
2023/01/24 08:24:05;;;;;;;;;;;2.50;99.90;;;;;;5021251;28;19941;-77
2023/01/24 08:26:31;;;;;;;;;;;2.50;99.90;;;;;;5020753;28;19909;-78
2023/01/24 08:28:56;;;;;;;;;;;2.50;99.90;;;;;;5021103;28;20591;-77
2023/01/24 08:31:22;;;;;;;;;;;2.60;99.90;;;;;;5027988;28;19923;-76
2023/01/24 08:33:48;;;;;;;;;;;2.60;99.90;;;;;;5027520;28;19912;-77
2023/01/24 08:36:14;;;;;;;;;;;2.70;99.90;;;;;;5027922;28;19912;-77
2023/01/24 08:38:40;;;;;;;;;;;2.60;99.90;;;;;;5029670;28;19964;-77
2023/01/24 08:41:08;;;;;;;;;;;2.60;99.90;;;;;;5027399;28;19939;-77
2023/01/24 08:43:33;;;;;;;;;;;2.70;99.90;;;;;;5026245;28;19905;-77
2023/01/24 08:45:59;;;;;;;;;;;3.70;99.90;;;;;;5025778;28;19909;-77
2023/01/24 08:48:24;;;;;;;;;;;3.10;99.90;;;;;;5026446;28;19963;-77
2023/01/24 08:50:50;;;;;;;;;;;2.70;99.90;;;;;;5008453;28;20545;-77
2023/01/24 08:53:19;;;;;;;;;;;2.80;99.90;;;;;;5025233;28;19945;-77
2023/01/24 08:55:47;;;;;;;;;;;2.80;99.90;;;;;;5028303;28;19956;-77
2023/01/24 08:58:13;;;;;;;;;;;2.50;99.90;;;;;;5026641;28;19905;-76
2023/01/24 09:00:38;;;;;;;;;;;2.80;99.90;;;;;;5028032;28;19963;-77
2023/01/24 09:03:04;;;;;;;;;;;2.90;99.90;;;;;;5028744;28;19909;-77
2023/01/24 09:05:30;;;;;;;;;;;2.90;99.90;;;;;;5026744;28;19943;-77
2023/01/24 09:07:55;;;;;;;;;;;2.90;99.90;;;;;;5030638;28;19909;-77
2023/01/24 09:10:21;;;;;;;;;;;2.70;99.90;;;;;;5028329;28;19920;-76
2023/01/24 09:12:47;;;;;;;;;;;2.90;99.90;;;;;;5025196;28;19906;-77
2023/01/24 09:15:12;;;;;;;;;;;0.80;99.90;;;;;;5026155;28;19936;-77
2023/01/24 09:17:40;;;;;;;;;;;2.90;99.90;;;;;;5023685;28;20020;-77
2023/01/24 09:20:06;;;;;;;;;;;2.90;99.90;;;;;;5026133;28;20000;-77
2023/01/24 09:22:32;;;;;;;;;;;3.10;99.90;;;;;;5026259;28;19917;-77
2023/01/24 09:24:57;;;;;;;;;;;3.00;99.90;;;;;;5027099;28;20008;-77
2023/01/24 09:27:23;;;;;;;;;;;3.00;99.90;;;;;;5027059;28;19909;-77
2023/01/24 09:29:48;;;;;;;;;;;3.10;99.90;;;;;;5028752;28;19974;-77
2023/01/24 09:32:16;;;;;;;;;;;3.10;99.90;;;;;;5028292;28;19916;-77
2023/01/24 09:34:46;;;;;;;;;;;3.10;99.90;;;;;;5026925;28;19916;-77
2023/01/24 09:37:13;;;;;;;;;;;3.20;99.90;;;;;;5026384;28;20099;-77
2023/01/24 09:39:39;;;;;;;;;;;3.20;99.90;;;;;;5008605;28;19909;-76
2023/01/24 09:42:11;;;;;;;;;;;3.20;99.90;;;;;;5025661;28;19917;-77
2023/01/24 09:44:54;;;;;;;;;;;3.30;99.90;;;;;;5024834;28;19913;-77
2023/01/24 09:47:19;;;;;;;;;;;3.30;99.90;;;;;;5026579;28;20016;-78
2023/01/24 09:49:49;;;;;;;;;;;3.30;99.90;;;;;;5028409;28;19940;-77
2023/01/24 09:52:20;;;;;;;;;;;3.30;99.90;;;;;;5029888;28;19909;-77
2023/01/24 09:55:09;;;;;;;;;;;3.30;99.90;;;;;;5027759;28;19921;-79
2023/01/24 09:57:55;;;;;;;;;;;3.40;99.90;;;;;;5020790;28;19913;-78
2023/01/24 10:00:26;;;;;;;;;;;3.40;99.90;;;;;;4950336;29;20040;-78
2023/01/24 10:02:56;;;;;;;;;;;3.40;99.90;;;;;;4933326;29;20017;-78
2023/01/24 10:05:24;;;;;;;;;;;3.40;99.90;;;;;;4935244;29;19918;-78
2023/01/24 10:08:05;;;;;;;;;;;3.40;99.90;;;;;;4937471;29;19949;-77
2023/01/24 10:10:43;;;;;;;;;;;3.40;99.90;;;;;;4953488;29;19919;-77
2023/01/24 10:13:17;;;;;;;;;;;3.50;99.90;;;;;;4951241;29;19918;-77
2023/01/24 10:15:55;;;;;;;;;;;3.50;99.90;;;;;;4957056;29;20581;-77
2023/01/24 10:18:24;;;;;;;;;;;3.40;99.90;;;;;;4954175;28;19969;-77
2023/01/24 10:20:49;;;;;;;;;;;3.50;99.90;;;;;;4939203;29;19919;-78
2023/01/24 10:23:16;;;;;;;;;;;3.50;99.90;;;;;;4937437;29;20572;-78
2023/01/24 10:25:45;;;;;;;;;;;3.50;99.90;;;;;;4950133;29;20243;-77
2023/01/24 10:28:18;;;;;;;;;;;3.50;99.90;;;;;;4949592;29;19922;-78
2023/01/24 10:30:48;;;;;;;;;;;3.60;99.90;;;;;;4950189;29;20720;-77
2023/01/24 10:33:16;;;;;;;;;;;3.60;99.90;;;;;;4948877;29;20417;-78
2023/01/24 10:35:44;;;;;;;;;;;3.60;99.90;;;;;;4933278;29;19910;-78
2023/01/24 10:38:13;;;;;;;;;;;5.20;99.90;;;;;;5008324;28;19992;-77
2023/01/24 10:40:54;;;;;;;;;;;3.70;99.90;;;;;;5027475;28;19971;-77
2023/01/24 10:43:30;;;;;;;;;;;3.70;99.90;;;;;;5010686;28;19905;-77
2023/01/24 10:45:57;;;;;;;;;;;2.80;99.90;;;;;;5012365;28;19909;-78
2023/01/24 10:48:33;;;;;;;;;;;3.80;99.90;;;;;;5009834;28;19925;-78
2023/01/24 10:51:10;;;;;;;;;;;3.80;99.90;;;;;;5028125;28;19905;-78
2023/01/24 10:53:35;;;;;;;;;;;3.70;99.90;;;;;;5009651;28;19905;-78
2023/01/24 10:56:02;;;;;;;;;;;3.60;99.90;;;;;;5029046;28;20008;-78
2023/01/24 10:58:43;;;;;;;;;;;3.60;99.90;;;;;;5027813;28;19939;-77
2023/01/24 11:01:19;;;;;;;;;;;3.50;99.90;;;;;;5008950;28;19917;-78
2023/01/24 11:03:46;;;;;;;;;;;3.50;99.90;;;;;;5025740;28;19913;-77
2023/01/24 11:06:20;;;;;;;;;;;3.50;99.90;;;;;;5025500;28;19909;-77
2023/01/24 11:08:52;;;;;;;;;;;3.50;99.90;;;;;;5025062;28;20537;-77
2023/01/24 11:11:22;;;;;;;;;;;3.40;99.90;;;;;;5024594;28;20564;-77
2023/01/24 11:13:48;;;;;;;;;;;3.50;99.90;;;;;;5006674;28;20004;-77
2023/01/24 11:16:16;;;;;;;;;;;3.50;99.90;;;;;;5024408;28;19909;-77
2023/01/24 11:18:58;;;;;;;;;;;3.60;99.90;;;;;;5043209;28;20118;-77
2023/01/24 11:21:24;;;;;;;;;;;3.70;99.90;;;;;;5009748;28;19917;-77
2023/01/24 11:24:28;;;;;;;;;;;3.70;99.90;;;;;;5049130;28;19947;-77
2023/01/24 11:27:16;;;;;;;;;;;3.80;99.90;;;;;;4957686;29;19917;-77
2023/01/24 11:29:41;;;;;;;;;;;3.50;99.90;;;;;;4941109;29;19972;-77
2023/01/24 11:32:32;;;;;;;;;;;3.70;99.90;;;;;;4945066;29;19906;-77
2023/01/24 11:35:10;;;;;;;;;;;3.70;99.90;;;;;;4944850;29;20427;-77
2023/01/24 11:37:45;;;;;;;;;;;3.80;99.90;;;;;;4942187;29;20048;-76
2023/01/24 11:40:13;;;;;;;;;;;3.80;99.90;;;;;;4926313;29;19920;-75
2023/01/24 11:42:54;;;;;;;;;;;3.80;99.90;;;;;;4942539;29;19975;-76
2023/01/24 11:45:36;;;;;;;;;;;3.80;99.90;;;;;;4924367;29;19922;-76
2023/01/24 11:48:07;;;;;;;;;;;3.80;99.90;;;;;;4939245;28;19992;-76
2023/01/24 11:50:39;;;;;;;;;;;3.80;99.90;;;;;;4944828;29;19966;-77
2023/01/24 11:53:25;;;;;;;;;;;3.90;99.90;;;;;;4928028;29;20409;-76
2023/01/24 11:55:50;;;;;;;;;;;3.90;99.90;;;;;;4928375;29;20566;-77
2023/01/24 11:58:18;;;;;;;;;;;3.90;99.90;;;;;;4944823;29;19929;-77
2023/01/24 12:00:49;;;;;;;;;;;3.90;99.90;;;;;;4926328;29;19915;-76
2023/01/24 12:03:21;;;;;;;;;;;3.80;99.90;;;;;;4985755;28;19917;-76
2023/01/24 12:05:46;;;;;;;;;;;3.80;99.90;;;;;;5023426;28;19913;-76
2023/01/24 12:08:51;;;;;;;;;;;3.80;99.90;;;;;;5023629;28;19967;-76
2023/01/24 12:11:26;;;;;;;;;;;3.00;99.90;;;;;;4927756;29;19933;-76
2023/01/24 12:14:10;;;;;;;;;;;3.50;99.90;;;;;;4943615;29;19918;-76
2023/01/24 12:16:42;;;;;;;;;;;3.70;99.90;;;;;;4943017;28;20401;-76
2023/01/24 12:19:23;;;;;;;;;;;3.80;99.90;;;;;;4945079;29;19923;-76
2023/01/24 12:21:53;;;;;;;;;;;3.70;99.90;;;;;;4927906;28;20345;-77
2023/01/24 12:24:22;;;;;;;;;;;2.80;99.90;;;;;;4928937;29;20629;-76
2023/01/24 12:26:50;;;;;;;;;;;3.80;99.90;;;;;;4926936;29;19949;-76
2023/01/24 12:29:22;;;;;;;;;;;3.80;99.90;;;;;;4941747;29;20486;-76
2023/01/24 12:31:47;;;;;;;;;;;3.80;99.90;;;;;;4943999;29;19906;-77
2023/01/24 12:34:13;;;;;;;;;;;3.50;99.90;;;;;;4926771;29;19982;-76
2023/01/24 12:36:42;;;;;;;;;;;3.80;99.90;;;;;;4946577;29;20047;-76
2023/01/24 12:39:14;;;;;;;;;;;3.80;99.90;;;;;;4942678;29;19910;-76
2023/01/24 12:41:41;;;;;;;;;;;3.70;99.90;;;;;;4970462;28;19956;-76
2023/01/24 12:44:30;;;;;;;;;;;3.70;99.90;;;;;;5022796;28;20561;-76
2023/01/24 12:46:59;;;;;;;;;;;3.70;99.90;;;;;;5023203;28;19913;-76
2023/01/24 12:49:36;;;;;;;;;;;3.60;99.90;;;;;;5023140;28;19917;-76
2023/01/24 12:52:06;;;;;;;;;;;3.50;99.90;;;;;;5005449;28;19984;-76
2023/01/24 12:54:38;;;;;;;;;;;3.50;99.90;;;;;;5023894;28;19925;-76
2023/01/24 12:57:12;;;;;;;;;;;3.50;99.90;;;;;;5026273;28;19909;-76
2023/01/24 12:59:38;;;;;;;;;;;3.50;99.90;;;;;;5024415;28;19909;-77
2023/01/24 13:02:16;;;;;;;;;;;3.50;99.90;;;;;;5026017;28;19924;-77
2023/01/24 13:04:47;;;;;;;;;;;3.60;99.90;;;;;;5024117;28;20000;-76
2023/01/24 13:07:32;;;;;;;;;;;3.50;99.90;;;;;;5006376;28;19913;-76
2023/01/24 13:10:16;;;;;;;;;;;3.60;99.90;;;;;;5024709;28;19909;-76
2023/01/24 13:12:43;;;;;;;;;;;3.60;99.90;;;;;;5007870;28;19916;-77
2023/01/24 13:15:20;;;;;;;;;;;3.70;99.90;;;;;;5027180;28;19905;-75
2023/01/24 13:17:56;;;;;;;;;;;3.70;99.90;;;;;;5011702;28;19917;-77
2023/01/24 13:20:40;;;;;;;;;;;3.80;99.90;;;;;;5013820;28;19940;-76
2023/01/24 13:23:09;;;;;;;;;;;3.80;99.90;;;;;;5029837;28;19955;-76
2023/01/24 13:25:53;;;;;;;;;;;3.80;99.90;;;;;;5011930;28;19920;-76
2023/01/24 13:28:37;;;;;;;;;;;4.00;99.90;;;;;;5028258;28;19909;-76
2023/01/24 13:31:16;;;;;;;;;;;3.80;99.90;;;;;;5030926;28;19917;-77
2023/01/24 13:33:46;;;;;;;;;;;3.80;99.90;;;;;;5036908;28;19913;-77
2023/01/24 13:36:15;;;;;;;;;;;3.80;99.90;;;;;;5020108;28;19921;-77
2023/01/24 13:38:42;;;;;;;;;;;3.80;99.90;;;;;;5036758;28;20621;-78
2023/01/24 13:41:13;;;;;;;;;;;3.80;99.90;;;;;;5016878;28;20012;-78
2023/01/24 13:43:55;;;;;;;;;;;3.80;99.90;;;;;;5013147;28;19913;-77
2023/01/24 13:46:40;;;;;;;;;;;3.80;99.90;;;;;;5015101;28;19912;-77
2023/01/24 13:49:15;;;;;;;;;;;3.50;99.90;;;;;;5033622;28;20004;-77
2023/01/24 13:51:42;;;;;;;;;;;3.80;99.90;;;;;;5014422;28;19905;-77
2023/01/24 13:54:36;;;;;;;;;;;3.80;99.90;;;;;;5028028;28;19917;-77
2023/01/24 13:57:21;;;;;;;;;;;3.50;99.90;;;;;;5010139;28;19952;-77
2023/01/24 14:00:08;;;;;;;;;;;3.70;99.90;;;;;;5026748;28;20511;-77
2023/01/24 14:02:43;;;;;;;;;;;3.60;99.90;;;;;;5026811;28;19968;-76
2023/01/24 14:05:27;;;;;;;;;;;3.60;99.90;;;;;;5009173;28;20008;-76
2023/01/24 14:07:53;;;;;;;;;;;3.60;99.90;;;;;;5026715;28;19999;-77
2023/01/24 14:10:31;;;;;;;;;;;3.50;99.90;;;;;;5009310;28;19909;-77
2023/01/24 14:12:56;;;;;;;;;;;3.50;99.90;;;;;;5027443;28;19972;-77
2023/01/24 14:15:29;;;;;;;;;;;3.50;99.90;;;;;;5011142;28;19948;-77
2023/01/24 14:17:55;;;;;;;;;;;3.50;99.90;;;;;;5007224;28;19921;-77
2023/01/24 14:20:24;;;;;;;;;;;3.40;99.90;;;;;;5025717;28;19914;-77
2023/01/24 14:22:52;;;;;;;;;;;3.40;99.90;;;;;;5007507;28;20387;-76
2023/01/24 14:25:27;;;;;;;;;;;3.30;99.90;;;;;;5027054;28;19941;-77
2023/01/24 14:28:13;;;;;;;;;;;1.30;99.90;;;;;;5025947;28;20412;-77
2023/01/24 14:30:42;;;;;;;;;;;3.30;99.90;;;;;;5007287;28;19913;-76
2023/01/24 14:33:21;;;;;;;;;;;3.30;99.90;;;;;;5007324;28;20542;-77
2023/01/24 14:36:06;;;;;;;;;;;3.20;99.90;;;;;;5008502;28;19909;-77
2023/01/24 14:38:32;;;;;;;;;;;3.20;99.90;;;;;;4946843;29;19914;-77
2023/01/24 14:41:00;;;;;;;;;;;3.30;99.90;;;;;;4945771;28;19997;-77
2023/01/24 14:43:44;;;;;;;;;;;3.20;99.90;;;;;;4945094;29;19918;-76
2023/01/24 14:46:15;;;;;;;;;;;3.30;99.90;;;;;;4928711;29;19942;-77
2023/01/24 14:48:41;;;;;;;;;;;3.30;99.90;;;;;;4944582;28;20081;-77
2023/01/24 14:51:14;;;;;;;;;;;3.30;99.90;;;;;;4929086;29;19910;-77
2023/01/24 14:53:45;;;;;;;;;;;3.20;99.90;;;;;;4929426;29;20192;-76
2023/01/24 14:56:15;;;;;;;;;;;3.10;99.90;;;;;;4945069;29;19969;-76
2023/01/24 14:58:41;;;;;;;;;;;3.10;99.90;;;;;;4928272;29;19911;-76
2023/01/24 15:01:26;;;;;;;;;;;3.10;99.90;;;;;;4962580;28;19910;-76
2023/01/24 15:03:55;;;;;;;;;;;3.10;99.90;;;;;;4962018;28;19914;-77
2023/01/24 15:06:22;;;;;;;;;;;3.10;99.90;;;;;;4961745;28;20768;-76
2023/01/24 15:08:48;;;;;;;;;;;3.10;99.90;;;;;;4961305;28;20049;-77
2023/01/24 15:11:38;;;;;;;;;;;3.10;99.90;;;;;;4946262;28;19918;-77
2023/01/24 15:14:05;;;;;;;;;;;2.70;99.90;;;;;;4942539;29;19997;-78
2023/01/24 15:16:34;;;;;;;;;;;3.10;99.90;;;;;;4992211;28;20252;-76
2023/01/24 15:19:06;;;;;;;;;;;3.10;99.90;;;;;;5000301;28;19921;-76
2023/01/24 15:21:40;;;;;;;;;;;3.10;99.90;;;;;;5001937;28;19951;-76
2023/01/24 15:24:16;;;;;;;;;;;2.60;99.90;;;;;;5001434;28;19918;-76
2023/01/24 15:26:43;;;;;;;;;;;3.10;99.90;;;;;;5003036;28;19997;-76